createdAt,value
2019-05-21T00:00:48.696Z,84.23
2019-05-21T00:03:22.114Z,77.53
2019-05-21T00:05:55.551Z,91.90
2019-05-21T00:08:28.973Z,94.87
2019-05-21T00:11:02.402Z,88.20
2019-05-21T00:13:35.831Z,94.90
2019-05-21T00:16:09.239Z,83.73
2019-05-21T00:18:42.684Z,96.50
2019-05-21T00:21:16.137Z,93.70
2019-05-21T00:23:49.548Z,86.40
2019-05-21T00:26:22.983Z,91.90
2019-05-21T00:29:32.959Z,92.10
2019-05-21T00:32:43.015Z,83.07
2019-05-21T00:35:53.572Z,89.47
2019-05-21T00:39:04.004Z,92.57
2019-05-21T00:42:02.629Z,85.27
2019-05-21T00:44:42.069Z,86.63
2019-05-21T00:47:15.473Z,75.27
2019-05-21T00:49:48.905Z,90.13
2019-05-21T00:52:22.367Z,97.87
2019-05-21T00:54:55.786Z,86.07
2019-05-21T00:57:29.220Z,92.37
2019-05-21T01:00:02.800Z,79.60
2019-05-21T01:02:36.269Z,85.47
2019-05-21T01:05:09.847Z,83.77
2019-05-21T01:07:43.262Z,102.43
2019-05-21T01:10:16.814Z,92.17
2019-05-21T01:12:50.222Z,87.57
2019-05-21T01:15:23.640Z,89.23
2019-05-21T01:17:57.050Z,72.67
2019-05-21T01:20:30.455Z,90.60
2019-05-21T01:23:03.855Z,72.23
2019-05-21T01:25:37.388Z,77.73
2019-05-21T01:28:10.805Z,78.87
2019-05-21T01:30:44.232Z,78.83
2019-05-21T01:33:17.653Z,75.47
2019-05-21T01:35:51.084Z,80.40
2019-05-21T01:38:24.505Z,75.17
2019-05-21T01:40:57.948Z,71.93
2019-05-21T01:43:31.345Z,68.07
2019-05-21T01:46:04.828Z,71.80
2019-05-21T01:48:38.241Z,73.30
2019-05-21T01:51:11.671Z,70.43
2019-05-21T01:53:45.090Z,61.30
2019-05-21T01:56:18.522Z,59.60
2019-05-21T01:58:51.938Z,60.80
2019-05-21T02:01:25.450Z,56.33
2019-05-21T02:03:58.870Z,50.37
2019-05-21T02:06:32.357Z,58.63
2019-05-21T02:09:07.303Z,53.50
2019-05-21T02:11:40.710Z,53.07
2019-05-21T02:14:14.124Z,48.53
2019-05-21T02:16:47.553Z,44.97
2019-05-21T02:19:20.972Z,44.93
2019-05-21T02:21:54.403Z,47.13
2019-05-21T02:24:27.802Z,43.83
2019-05-21T02:27:01.230Z,40.33
2019-05-21T02:29:34.638Z,49.03
2019-05-21T02:32:08.067Z,42.63
2019-05-21T02:34:41.473Z,49.40
2019-05-21T02:37:14.897Z,38.00
2019-05-21T02:39:48.280Z,35.63
2019-05-21T02:42:21.707Z,38.07
2019-05-21T02:44:55.201Z,41.67
2019-05-21T02:47:28.889Z,38.50
2019-05-21T02:50:02.369Z,41.67
2019-05-21T02:52:35.877Z,35.00
2019-05-21T02:55:09.668Z,35.23
2019-05-21T02:57:43.112Z,33.20
2019-05-21T03:00:31.173Z,36.70
2019-05-21T03:03:06.391Z,36.03
2019-05-21T03:05:39.780Z,34.50
2019-05-21T03:08:13.189Z,30.67
2019-05-21T03:10:46.687Z,28.80
2019-05-21T03:13:20.085Z,33.93
2019-05-21T03:15:53.574Z,35.60
2019-05-21T03:18:27.015Z,35.23
2019-05-21T03:21:00.411Z,37.30
2019-05-21T03:23:33.888Z,30.00
2019-05-21T03:26:07.402Z,32.00
2019-05-21T03:28:40.858Z,31.70
2019-05-21T03:31:15.109Z,29.03
2019-05-21T03:33:48.546Z,31.67
2019-05-21T03:36:32.717Z,30.43
2019-05-21T03:38:57.117Z,32.90
2019-05-21T03:41:30.528Z,30.70
2019-05-21T03:44:04.029Z,26.87
2019-05-21T03:46:37.475Z,27.53
2019-05-21T03:49:10.912Z,21.87
2019-05-21T03:51:44.334Z,27.00
2019-05-21T03:54:17.777Z,25.57
2019-05-21T03:56:51.254Z,25.60
2019-05-21T03:59:25.076Z,29.07
2019-05-21T04:01:58.583Z,18.37
2019-05-21T04:04:32.035Z,21.43
2019-05-21T04:07:05.446Z,27.20
2019-05-21T04:09:38.883Z,29.97
2019-05-21T04:12:12.303Z,28.60
2019-05-21T04:15:02.404Z,27.60
2019-05-21T04:17:49.514Z,21.23
2019-05-21T04:20:22.934Z,23.13
2019-05-21T04:22:56.336Z,26.90
2019-05-21T04:25:29.753Z,21.30
2019-05-21T04:28:03.150Z,24.57
2019-05-21T04:30:36.645Z,21.43
2019-05-21T04:33:10.058Z,22.20
2019-05-21T04:35:43.552Z,24.33
2019-05-21T04:38:16.995Z,23.70
2019-05-21T04:40:50.477Z,30.07
2019-05-21T04:43:23.870Z,23.77
2019-05-21T04:45:57.939Z,25.57
2019-05-21T04:48:31.315Z,23.73
2019-05-21T04:51:04.796Z,24.23
2019-05-21T04:53:38.201Z,26.90
2019-05-21T04:56:11.662Z,25.80
2019-05-21T04:58:45.085Z,25.53
2019-05-21T05:01:18.870Z,25.83
2019-05-21T05:03:52.312Z,25.83
2019-05-21T05:06:25.769Z,30.57
2019-05-21T05:08:59.145Z,23.40
2019-05-21T05:11:32.557Z,25.50
2019-05-21T05:14:05.970Z,22.67
2019-05-21T05:16:39.445Z,24.77
2019-05-21T05:19:12.914Z,23.30
2019-05-21T05:21:46.413Z,23.47
2019-05-21T05:24:19.792Z,21.50
2019-05-21T05:26:53.245Z,23.90
2019-05-21T05:29:26.662Z,17.73
2019-05-21T05:32:00.100Z,20.20
2019-05-21T05:34:33.516Z,22.93
2019-05-21T05:37:06.952Z,23.63
2019-05-21T05:39:40.360Z,25.50
2019-05-21T05:42:13.803Z,17.87
2019-05-21T05:44:47.579Z,18.63
2019-05-21T05:47:21.014Z,16.60
2019-05-21T05:50:02.028Z,17.37
2019-05-21T05:52:35.435Z,16.53
2019-05-21T05:55:09.063Z,17.93
2019-05-21T05:57:42.476Z,12.80
2019-05-21T06:00:17.589Z,13.38
2019-05-21T06:02:51.027Z,12.63
2019-05-21T06:05:24.573Z,13.37
2019-05-21T06:08:00.193Z,13.40
2019-05-21T06:10:33.204Z,14.17
2019-05-21T06:13:06.709Z,13.77
2019-05-21T06:15:40.110Z,12.10
2019-05-21T06:18:13.512Z,14.37
2019-05-21T06:20:46.944Z,11.23
2019-05-21T06:23:20.375Z,14.07
2019-05-21T06:25:53.794Z,11.23
2019-05-21T06:28:27.228Z,10.43
2019-05-21T06:31:00.645Z,11.67
2019-05-21T06:33:34.046Z,11.60
2019-05-21T06:36:07.540Z,9.57
2019-05-21T06:38:40.942Z,7.73
2019-05-21T06:41:14.483Z,9.60
2019-05-21T06:43:47.941Z,8.63
2019-05-21T06:46:21.349Z,8.00
2019-05-21T06:48:54.737Z,7.30
2019-05-21T06:51:28.166Z,6.73
2019-05-21T06:54:01.577Z,7.40
2019-05-21T06:56:35.057Z,8.60
2019-05-21T06:59:08.481Z,7.80
2019-05-21T07:01:41.899Z,5.87
2019-05-21T07:04:15.392Z,7.43
2019-05-21T07:06:48.843Z,5.30
2019-05-21T07:09:22.267Z,5.27
2019-05-21T07:11:55.725Z,4.30
2019-05-21T07:14:29.124Z,3.90
2019-05-21T07:17:02.550Z,6.47
2019-05-21T07:19:35.961Z,4.90
2019-05-21T07:22:13.006Z,3.53
2019-05-21T07:24:44.592Z,3.77
2019-05-21T07:27:17.999Z,3.13
2019-05-21T07:29:51.384Z,3.53
2019-05-21T07:32:24.870Z,5.20
2019-05-21T07:34:58.267Z,5.93
2019-05-21T07:37:31.679Z,3.53
2019-05-21T07:40:07.902Z,4.40
2019-05-21T07:42:41.397Z,4.20
2019-05-21T07:45:15.132Z,4.15
2019-05-21T07:47:48.550Z,3.93
2019-05-21T07:50:21.936Z,3.43
2019-05-21T07:52:56.153Z,4.30
2019-05-21T07:55:29.561Z,3.77
2019-05-21T07:58:02.973Z,3.50
2019-05-21T08:00:36.364Z,5.20
2019-05-21T08:03:09.797Z,5.33
2019-05-21T08:05:43.195Z,4.07
2019-05-21T08:08:16.617Z,5.40
2019-05-21T08:10:50.001Z,3.90
2019-05-21T08:13:23.481Z,3.60
2019-05-21T08:15:56.866Z,3.13
2019-05-21T08:18:30.269Z,3.73
2019-05-21T08:21:03.667Z,3.50
2019-05-21T08:23:37.119Z,4.27
2019-05-21T08:26:10.558Z,3.70
2019-05-21T08:28:43.978Z,4.63
2019-05-21T08:31:17.374Z,5.20
2019-05-21T08:33:50.796Z,4.33
2019-05-21T08:36:24.196Z,3.47
2019-05-21T08:38:57.613Z,3.50
2019-05-21T08:41:31.022Z,3.57
2019-05-21T08:44:04.488Z,3.87
2019-05-21T08:46:37.880Z,3.50
2019-05-21T08:49:11.283Z,3.30
2019-05-21T08:51:44.683Z,4.23
2019-05-21T08:54:19.748Z,4.60
2019-05-21T08:56:53.157Z,3.23
2019-05-21T08:59:26.558Z,5.17
2019-05-21T09:02:00.035Z,3.53
2019-05-21T09:04:45.866Z,4.27
2019-05-21T09:07:08.900Z,3.87
2019-05-21T09:09:50.045Z,4.33
2019-05-21T09:12:17.601Z,4.37
2019-05-21T09:14:51.018Z,5.93
2019-05-21T09:17:24.426Z,4.00
2019-05-21T09:19:57.927Z,4.83
2019-05-21T09:22:31.407Z,4.47
2019-05-21T09:25:06.337Z,4.10
2019-05-21T09:27:39.879Z,4.47
2019-05-21T09:30:13.837Z,4.63
2019-05-21T09:32:47.226Z,4.23
2019-05-21T09:35:20.701Z,4.70
2019-05-21T09:37:54.163Z,4.67
2019-05-21T09:40:28.233Z,5.80
2019-05-21T09:43:01.643Z,4.33
2019-05-21T09:45:35.153Z,4.30
2019-05-21T09:48:08.517Z,4.17
2019-05-21T09:50:41.944Z,4.57
2019-05-21T09:53:15.658Z,6.47
2019-05-21T09:55:49.067Z,3.07
2019-05-21T09:58:26.565Z,4.10
2019-05-21T10:01:13.857Z,3.75
2019-05-21T10:03:58.322Z,3.80
2019-05-21T10:06:31.744Z,3.77
2019-05-21T10:09:09.392Z,4.00
2019-05-21T10:11:42.906Z,3.70
2019-05-21T10:14:16.395Z,4.80
2019-05-21T10:16:49.802Z,4.73
2019-05-21T10:19:23.198Z,4.47
2019-05-21T10:21:57.195Z,4.17
2019-05-21T10:24:30.649Z,4.37
2019-05-21T10:27:04.245Z,3.43
2019-05-21T10:29:37.622Z,4.00
2019-05-21T10:32:11.113Z,2.72
2019-05-21T10:34:44.530Z,2.47
2019-05-21T10:37:18.079Z,3.37
2019-05-21T10:39:51.562Z,3.53
2019-05-21T10:42:25.006Z,2.57
2019-05-21T10:44:58.419Z,3.13
2019-05-21T10:47:31.861Z,2.77
2019-05-21T10:50:07.558Z,3.08
2019-05-21T10:52:41.042Z,2.93
2019-05-21T10:55:16.119Z,2.80
2019-05-21T10:57:49.707Z,2.93
2019-05-21T11:00:23.667Z,2.73
2019-05-21T11:03:01.646Z,2.23
2019-05-21T11:05:39.691Z,3.13
2019-05-21T11:08:23.365Z,2.90
2019-05-21T11:10:48.312Z,3.27
2019-05-21T11:13:21.730Z,3.30
2019-05-21T11:15:55.242Z,3.60
2019-05-21T11:18:28.646Z,3.37
2019-05-21T11:21:02.042Z,3.77
2019-05-21T11:23:35.482Z,3.37
2019-05-21T11:26:08.865Z,4.37
2019-05-21T11:28:42.291Z,5.13
2019-05-21T11:31:15.744Z,3.90
2019-05-21T11:33:49.177Z,3.77
2019-05-21T11:36:22.578Z,3.77
2019-05-21T11:38:56.885Z,3.47
2019-05-21T11:41:30.282Z,3.63
2019-05-21T11:44:03.823Z,3.40
2019-05-21T11:46:37.285Z,3.23
2019-05-21T11:49:10.763Z,3.43
2019-05-21T11:51:44.172Z,2.40
2019-05-21T11:54:17.635Z,3.37
2019-05-21T11:56:51.024Z,3.37
2019-05-21T11:59:24.430Z,3.10
2019-05-21T12:01:57.836Z,3.13
2019-05-21T12:04:31.235Z,3.17
2019-05-21T12:07:04.796Z,2.70
2019-05-21T12:09:38.242Z,3.80
2019-05-21T12:12:11.620Z,2.90
2019-05-21T12:14:45.028Z,2.87
2019-05-21T12:17:18.417Z,2.90
2019-05-21T12:19:51.922Z,3.87
2019-05-21T12:22:25.315Z,3.47
2019-05-21T12:24:58.764Z,3.90
2019-05-21T12:27:32.153Z,4.40
2019-05-21T12:30:08.419Z,3.12
2019-05-21T12:32:41.851Z,3.60
2019-05-21T12:35:15.321Z,2.90
2019-05-21T12:37:48.737Z,3.60
2019-05-21T12:40:22.423Z,2.90
2019-05-21T12:42:55.835Z,2.60
2019-05-21T12:45:32.179Z,1.83
2019-05-21T12:48:05.564Z,3.17
2019-05-21T12:50:39.749Z,4.07
2019-05-21T12:53:16.493Z,3.30
2019-05-21T12:55:49.381Z,7.20
2019-05-21T12:58:22.772Z,4.00
2019-05-21T13:00:56.190Z,4.47
2019-05-21T13:03:29.653Z,4.43
2019-05-21T13:06:03.148Z,3.30
2019-05-21T13:08:36.529Z,4.73
2019-05-21T13:11:09.957Z,4.37
2019-05-21T13:13:43.463Z,4.33
2019-05-21T13:16:16.878Z,4.47
2019-05-21T13:18:50.259Z,3.43
2019-05-21T13:21:23.695Z,4.20
2019-05-21T13:23:57.402Z,4.73
2019-05-21T13:26:30.830Z,4.80
2019-05-21T13:29:04.567Z,5.30
2019-05-21T13:31:38.081Z,5.93
2019-05-21T13:34:11.516Z,5.70
2019-05-21T13:36:44.915Z,5.83
2019-05-21T13:39:18.484Z,4.60
2019-05-21T13:41:51.974Z,5.17
2019-05-21T13:44:25.393Z,4.13
2019-05-21T13:46:58.882Z,4.67
2019-05-21T13:49:32.303Z,5.87
2019-05-21T13:52:05.769Z,5.17
2019-05-21T13:54:39.200Z,6.53
2019-05-21T13:57:12.778Z,6.47
2019-05-21T13:59:46.196Z,5.77
2019-05-21T14:02:20.188Z,7.90
2019-05-21T14:04:53.762Z,5.50
2019-05-21T14:07:27.223Z,6.00
2019-05-21T14:10:14.289Z,8.27
2019-05-21T14:12:36.070Z,7.53
2019-05-21T14:15:09.722Z,8.70
2019-05-21T14:17:43.192Z,7.37
2019-05-21T14:20:16.842Z,7.13
2019-05-21T14:22:50.262Z,9.13
2019-05-21T14:25:23.786Z,7.53
2019-05-21T14:27:57.165Z,7.50
2019-05-21T14:30:30.598Z,7.53
2019-05-21T14:33:04.459Z,6.23
2019-05-21T14:35:37.876Z,6.70
2019-05-21T14:38:11.268Z,8.20
2019-05-21T14:40:44.769Z,8.70
2019-05-21T14:43:18.187Z,8.70
2019-05-21T14:45:51.594Z,6.83
2019-05-21T14:48:24.984Z,6.00
2019-05-21T14:50:58.417Z,11.07
2019-05-21T14:53:31.810Z,9.30
2019-05-21T14:56:05.247Z,8.97
2019-05-21T14:58:38.652Z,9.07
2019-05-21T15:01:12.074Z,8.30
2019-05-21T15:03:45.666Z,10.47
2019-05-21T15:06:19.434Z,9.50
2019-05-21T15:08:52.924Z,8.33
2019-05-21T15:11:26.367Z,10.77
2019-05-21T15:13:59.806Z,8.00
2019-05-21T15:16:33.240Z,7.47
2019-05-21T15:19:06.644Z,8.43
2019-05-21T15:21:41.772Z,8.03
2019-05-21T15:24:15.439Z,7.80
2019-05-21T15:26:49.242Z,8.37
2019-05-21T15:29:22.667Z,10.33
2019-05-21T15:31:56.103Z,10.00
2019-05-21T15:34:29.493Z,9.30
2019-05-21T15:37:02.950Z,8.57
2019-05-21T15:39:36.333Z,9.53
2019-05-21T15:44:48.596Z,9.73
2019-05-21T15:47:22.009Z,11.50
2019-05-21T15:49:55.430Z,11.57
2019-05-21T15:52:28.863Z,9.60
2019-05-21T15:55:06.776Z,10.10
2019-05-21T15:57:37.509Z,8.37
2019-05-21T16:00:16.103Z,8.53
2019-05-21T16:02:49.468Z,8.37
2019-05-21T16:05:22.938Z,8.13
2019-05-21T16:07:56.396Z,7.40
2019-05-21T16:10:29.812Z,7.87
2019-05-21T16:13:03.343Z,6.97
2019-05-21T16:15:36.835Z,7.70
2019-05-21T16:18:10.268Z,6.60
2019-05-21T16:20:43.908Z,7.27
2019-05-21T16:23:17.398Z,5.57
2019-05-21T16:25:50.791Z,6.30
2019-05-21T16:28:24.220Z,5.73
2019-05-21T16:30:57.729Z,5.73
2019-05-21T16:33:31.252Z,6.03
2019-05-21T16:36:04.832Z,5.80
2019-05-21T16:38:38.345Z,8.80
2019-05-21T16:41:11.748Z,7.07
2019-05-21T16:43:45.196Z,7.17
2019-05-21T16:46:18.587Z,8.33
2019-05-21T16:48:52.009Z,7.13
2019-05-21T16:51:25.515Z,6.97
2019-05-21T16:53:58.997Z,8.07
2019-05-21T16:56:32.463Z,6.83
2019-05-21T16:59:05.986Z,6.20
2019-05-21T17:01:39.494Z,6.80
2019-05-21T17:04:12.898Z,7.20
2019-05-21T17:06:46.383Z,7.00
2019-05-21T17:09:19.872Z,8.00
2019-05-21T17:12:00.046Z,8.23
2019-05-21T17:14:28.405Z,9.07
2019-05-21T17:17:01.868Z,8.70
2019-05-21T17:19:35.359Z,9.97
2019-05-21T17:22:08.761Z,9.80
2019-05-21T17:24:42.378Z,10.33
2019-05-21T17:27:15.769Z,7.30
2019-05-21T17:29:49.226Z,9.00
2019-05-21T17:32:22.627Z,9.53
2019-05-21T17:34:56.149Z,12.77
2019-05-21T17:37:29.699Z,10.37
2019-05-21T17:40:04.523Z,10.27
2019-05-21T17:42:37.918Z,10.67
2019-05-21T17:45:11.501Z,11.60
2019-05-21T17:47:44.922Z,12.73
2019-05-21T17:50:18.783Z,11.27
2019-05-21T17:52:52.258Z,10.83
2019-05-21T17:55:25.870Z,10.43
2019-05-21T17:57:59.426Z,12.47
2019-05-21T18:00:49.898Z,11.03
2019-05-21T18:03:23.950Z,11.40
2019-05-21T18:05:58.310Z,10.63
2019-05-21T18:08:32.282Z,13.43
2019-05-21T18:11:06.162Z,11.87
2019-05-21T18:13:39.923Z,11.60
2019-05-21T18:16:14.100Z,11.87
2019-05-21T18:18:48.053Z,10.57
2019-05-21T18:21:23.561Z,12.00
2019-05-21T18:23:56.962Z,13.40
2019-05-21T18:26:30.457Z,13.73
2019-05-21T18:29:03.839Z,12.67
2019-05-21T18:31:37.320Z,13.97
2019-05-21T18:34:11.161Z,13.23
2019-05-21T18:36:44.608Z,14.30
2019-05-21T18:39:18.935Z,13.27
2019-05-21T18:41:52.426Z,13.57
2019-05-21T18:44:26.103Z,16.37
2019-05-21T18:46:59.592Z,13.80
2019-05-21T18:49:33.014Z,12.50
2019-05-21T18:52:06.727Z,16.23
2019-05-21T18:54:40.219Z,16.00
2019-05-21T18:57:16.827Z,17.57
2019-05-21T18:59:50.142Z,16.10
2019-05-21T19:02:23.617Z,16.53
2019-05-21T19:04:57.114Z,16.63
2019-05-21T19:07:30.674Z,18.30
2019-05-21T19:10:06.726Z,18.47
2019-05-21T19:12:41.231Z,19.20
2019-05-21T19:15:16.069Z,21.70
2019-05-21T19:17:49.603Z,17.47
2019-05-21T19:20:23.227Z,20.37
2019-05-21T19:22:56.673Z,20.13
2019-05-21T19:25:30.084Z,21.83
2019-05-21T19:28:03.658Z,21.23
2019-05-21T19:30:37.149Z,19.90
2019-05-21T19:33:10.716Z,21.23
2019-05-21T19:35:44.134Z,21.37
2019-05-21T19:38:17.817Z,21.67
2019-05-21T19:40:51.375Z,21.23
2019-05-21T19:43:24.908Z,20.63
2019-05-21T19:45:58.343Z,21.70
2019-05-21T19:48:31.769Z,20.23
2019-05-21T19:51:05.376Z,19.93
2019-05-21T19:53:38.823Z,20.90
2019-05-21T19:56:12.388Z,20.73
2019-05-21T19:58:45.874Z,23.83
2019-05-21T20:01:19.604Z,22.63
2019-05-21T20:03:53.604Z,22.87
2019-05-21T20:06:27.606Z,23.60
2019-05-21T20:09:01.245Z,23.13
2019-05-21T20:11:34.808Z,24.23
2019-05-21T20:14:08.255Z,22.13
2019-05-21T20:16:42.359Z,24.60
2019-05-21T20:19:17.482Z,22.53
2019-05-21T20:21:51.420Z,25.10
2019-05-21T20:24:25.507Z,27.53
2019-05-21T20:26:59.185Z,23.87
2019-05-21T20:29:33.076Z,23.90
2019-05-21T20:32:06.956Z,26.47
2019-05-21T20:34:40.729Z,24.80
2019-05-21T20:37:16.584Z,26.57
2019-05-21T20:39:51.778Z,27.43
2019-05-21T20:42:26.863Z,25.60
2019-05-21T20:45:00.331Z,26.93
2019-05-21T20:47:34.365Z,26.50
2019-05-21T20:50:12.111Z,23.37
2019-05-21T20:52:45.443Z,24.30
2019-05-21T20:55:19.590Z,24.85
2019-05-21T20:57:54.054Z,26.07
2019-05-21T21:00:45.435Z,23.97
2019-05-21T21:03:18.969Z,25.17
2019-05-21T21:05:52.420Z,25.47
2019-05-21T21:08:27.836Z,22.60
2019-05-21T21:11:01.607Z,24.17
2019-05-21T21:13:35.681Z,26.43
2019-05-21T21:16:10.118Z,22.20
2019-05-21T21:18:44.441Z,23.03
2019-05-21T21:21:18.336Z,24.27
2019-05-21T21:23:52.123Z,25.43
2019-05-21T21:26:25.807Z,27.90
2019-05-21T21:28:59.432Z,24.23
2019-05-21T21:31:32.892Z,27.00
2019-05-21T21:34:06.793Z,50.23
2019-05-21T21:36:40.738Z,27.93
2019-05-21T21:39:14.318Z,27.80
2019-05-21T21:41:48.264Z,28.23
2019-05-21T21:44:33.374Z,29.20
2019-05-21T21:46:57.763Z,27.17
2019-05-21T21:49:32.836Z,25.53
2019-05-21T21:52:07.847Z,25.70
2019-05-21T21:54:41.931Z,30.37
2019-05-21T21:57:15.387Z,30.80
2019-05-21T21:59:48.830Z,31.47
2019-05-21T22:02:25.763Z,30.93
2019-05-21T22:05:01.108Z,29.37
2019-05-21T22:07:35.137Z,33.77
2019-05-21T22:10:09.613Z,29.20
2019-05-21T22:12:43.444Z,30.47
2019-05-21T22:15:17.977Z,30.27
2019-05-21T22:17:51.386Z,34.27
2019-05-21T22:20:25.197Z,32.43
2019-05-21T22:22:58.897Z,28.40
2019-05-21T22:25:32.571Z,29.43
2019-05-21T22:28:06.043Z,35.13
2019-05-21T22:30:39.846Z,31.00
2019-05-21T22:33:13.497Z,31.10
2019-05-21T22:35:46.931Z,30.20
2019-05-21T22:38:20.400Z,30.57
2019-05-21T22:40:53.827Z,26.43
2019-05-21T22:43:28.354Z,28.40
2019-05-21T22:46:02.552Z,27.47
2019-05-21T22:48:36.129Z,30.30
2019-05-21T22:51:09.692Z,30.70
2019-05-21T22:54:00.106Z,32.03
2019-05-21T22:56:33.544Z,31.00
2019-05-21T22:59:07.085Z,30.50
2019-05-21T23:01:42.254Z,29.83
2019-05-21T23:04:15.898Z,28.20
2019-05-21T23:06:49.406Z,26.77
2019-05-21T23:09:22.808Z,30.73
2019-05-21T23:11:56.338Z,28.53
2019-05-21T23:14:29.769Z,28.77
2019-05-21T23:20:38.102Z,32.07
2019-05-21T23:23:12.601Z,29.33
2019-05-21T23:25:46.937Z,30.40
2019-05-21T23:28:20.605Z,29.83
2019-05-21T23:30:54.557Z,30.37
2019-05-21T23:33:28.710Z,30.60
2019-05-21T23:36:02.665Z,32.47
2019-05-21T23:38:36.682Z,32.03
2019-05-21T23:41:10.887Z,31.23
2019-05-21T23:43:44.376Z,34.07
2019-05-21T23:46:18.603Z,34.83
2019-05-21T23:48:52.073Z,33.47
2019-05-21T23:51:25.476Z,30.20
2019-05-21T23:53:59.268Z,29.73
2019-05-21T23:56:32.944Z,34.97
2019-05-21T23:59:06.872Z,34.63
